Mission, Canada
Current Conditions -  °F | °C
As of 12:00 AM on Friday 31 Oct 2014 (Local Time) from CYXX Reporting Station
Light Rain Light Rain  
Wind Chill: 52°   Ceiling: 3000
Heat Index: 52°   Visibility: 8mi
Dew Point: 52°   Wind: 6mph
Humidity: 100%   Direction: 140°SE
Pressure: 29.77"   Gusts: NA
Location:  49.13°N, 122.3°W
Report Text: CYXX 310700Z 14005KT 8SM -RA OVC030 11/11 A2977 RMK SC8 SLP083
Loading
Personal Weather Stations






























Interactive Weather Map New forecast layout! Learn more

10-Day Weather Forecast

Advertisements
Track Severe Weather on mobile